Map

Track Data

SID SEASON NUMBER BASIN SUBBASIN NAME ISO_TIME NATURE LAT LON WMO_WIND WMO_PRES WMO_AGENCY TRACK_TYPE DIST2LAND LANDFALL IFLAG USA_AGENCY USA_ATCF_ID USA_LAT USA_LON USA_RECORD USA_STATUS USA_WIND USA_PRES USA_SSHS USA_R34_NE USA_R34_SE USA_R34_SW USA_R34_NW USA_R50_NE USA_R50_SE USA_R50_SW USA_R50_NW USA_R64_NE USA_R64_SE USA_R64_SW USA_R64_NW USA_POCI USA_ROCI USA_RMW USA_EYE TOKYO_LAT TOKYO_LON TOKYO_GRADE TOKYO_WIND TOKYO_PRES TOKYO_R50_DIR TOKYO_R50_LONG TOKYO_R50_SHORT TOKYO_R30_DIR TOKYO_R30_LONG TOKYO_R30_SHORT TOKYO_LAND CMA_LAT CMA_LON CMA_CAT CMA_WIND CMA_PRES HKO_LAT HKO_LON HKO_CAT HKO_WIND HKO_PRES NEWDELHI_LAT NEWDELHI_LON NEWDELHI_GRADE NEWDELHI_WIND NEWDELHI_PRES NEWDELHI_CI NEWDELHI_DP NEWDELHI_POCI REUNION_LAT REUNION_LON REUNION_TYPE REUNION_WIND REUNION_PRES REUNION_TNUM REUNION_CI REUNION_RMW REUNION_R34_NE REUNION_R34_SE REUNION_R34_SW REUNION_R34_NW REUNION_R50_NE REUNION_R50_SE REUNION_R50_SW REUNION_R50_NW REUNION_R64_NE REUNION_R64_SE REUNION_R64_SW REUNION_R64_NW BOM_LAT BOM_LON BOM_TYPE BOM_WIND BOM_PRES BOM_TNUM BOM_CI BOM_RMW BOM_R34_NE BOM_R34_SE BOM_R34_SW BOM_R34_NW BOM_R50_NE BOM_R50_SE BOM_R50_SW BOM_R50_NW BOM_R64_NE BOM_R64_SE BOM_R64_SW BOM_R64_NW BOM_ROCI BOM_POCI BOM_EYE BOM_POS_METHOD BOM_PRES_METHOD NADI_LAT NADI_LON NADI_CAT NADI_WIND NADI_PRES WELLINGTON_LAT WELLINGTON_LON WELLINGTON_WIND WELLINGTON_PRES DS824_LAT DS824_LON DS824_STAGE DS824_WIND DS824_PRES TD9636_LAT TD9636_LON TD9636_STAGE TD9636_WIND TD9636_PRES TD9635_LAT TD9635_LON TD9635_WIND TD9635_PRES TD9635_ROCI NEUMANN_LAT NEUMANN_LON NEUMANN_CLASS NEUMANN_WIND NEUMANN_PRES MLC_LAT MLC_LON MLC_CLASS MLC_WIND MLC_PRES USA_GUST BOM_GUST BOM_GUST_PER REUNION_GUST REUNION_GUST_PER USA_SEAHGT USA_SEARAD_NE USA_SEARAD_SE USA_SEARAD_SW USA_SEARAD_NW STORM_SPEED STORM_DIR
1890153N13279 1890 13 NA CS NOT_NAMED 1890-06-01 12:00:00 TS 13.0000 -81.0000 main 271 238 _____________O -1 13.0000 -81.0000 TD 30 10 329
1890153N13279 1890 13 NA CS NOT_NAMED 1890-06-01 15:00:00 TS 13.4126 -81.2498 main 238 191 _____________P -1 13.4126 -81.2498 TD 30 9 329
1890153N13279 1890 13 NA CS NOT_NAMED 1890-06-01 18:00:00 TS 13.8000 -81.5000 main 191 163 _____________O -1 13.8000 -81.5000 TD 30 9 327
1890153N13279 1890 13 NA CS NOT_NAMED 1890-06-01 21:00:00 TS 14.1500 -81.7501 main 152 129 _____________P -1 14.1500 -81.7501 TD 30 9 325
1890153N13279 1890 13 NA CS NOT_NAMED 1890-06-02 00:00:00 TS 14.5000 -82.0000 main 130 97 _____________O -1 14.5000 -82.0000 TD 30 9 327
1890153N13279 1890 13 NA CS NOT_NAMED 1890-06-02 03:00:00 TS 14.9000 -82.2500 main 86 68 _____________P -1 14.9000 -82.2500 TD 30 9 329
1890153N13279 1890 13 NA CS NOT_NAMED 1890-06-02 06:00:00 TS 15.3000 -82.5000 main 72 69 _____________O -1 15.3000 -82.5000 TD 30 9 327
1890153N13279 1890 13 NA CS NOT_NAMED 1890-06-02 09:00:00 TS 15.6350 -82.7502 main 72 72 _____________P -1 15.6350 -82.7502 TD 30 9 325
1890153N13279 1890 13 NA CS NOT_NAMED 1890-06-02 12:00:00 TS 16.0000 -83.0000 main 89 89 _____________O -1 16.0000 -83.0000 TD 30 10 330
1890153N13279 1890 13 NA CS NOT_NAMED 1890-06-02 15:00:00 TS 16.4775 -83.2500 main 125 125 _____________P -1 16.4775 -83.2500 TD 30 11 334
1890153N13279 1890 13 NA CS NOT_NAMED 1890-06-02 18:00:00 TS 17.0000 -83.5000 main 159 159 _____________O -1 17.0000 -83.5000 TD 30 11 335
1890153N13279 1890 13 NA CS NOT_NAMED 1890-06-02 21:00:00 TS 17.5000 -83.7501 main 197 197 _____________P -1 17.5000 -83.7501 TD 32 11 335
1890153N13279 1890 13 NA CS NOT_NAMED 1890-06-03 00:00:00 TS 18.0000 -84.0000 main 246 246 _____________O -1 18.0000 -84.0000 TS 35 11 335
1890153N13279 1890 13 NA CS NOT_NAMED 1890-06-03 03:00:00 TS 18.5000 -84.2501 main 294 294 _____________P -1 18.5000 -84.2501 TS 35 11 335
1890153N13279 1890 13 NA CS NOT_NAMED 1890-06-03 06:00:00 TS 19.0000 -84.5000 main 309 257 _____________O -1 19.0000 -84.5000 TS 35 11 335
1890153N13279 1890 13 NA CS NOT_NAMED 1890-06-03 09:00:00 TS 19.5225 -84.7500 main 257 202 _____________P -1 19.5225 -84.7500 TS 35 11 335
1890153N13279 1890 13 NA CS NOT_NAMED 1890-06-03 12:00:00 TS 20.0000 -85.0000 main 202 161 _____________O -1 20.0000 -85.0000 TS 35 10 331
1890153N13279 1890 13 NA CS NOT_NAMED 1890-06-03 15:00:00 TS 20.3800 -85.2502 main 164 132 _____________P -1 20.3800 -85.2502 TS 35 8 326
1890153N13279 1890 13 NA CS NOT_NAMED 1890-06-03 18:00:00 TS 20.7000 -85.5000 main 132 104 _____________O -1 20.7000 -85.5000 TS 35 8 323
1890153N13279 1890 13 NA CS NOT_NAMED 1890-06-03 21:00:00 TS 21.0075 -85.7501 main 94 75 _____________P -1 21.0075 -85.7501 TS 35 8 322
1890153N13279 1890 13 NA CS NOT_NAMED 1890-06-04 00:00:00 TS 21.3000 -86.0000 main 75 66 _____________O -1 21.3000 -86.0000 TS 35 8 322
1890153N13279 1890 13 NA CS NOT_NAMED 1890-06-04 03:00:00 TS 21.6000 -86.2501 main 61 60 _____________P -1 21.6000 -86.2501 TS 35 8 322
1890153N13279 1890 13 NA GM NOT_NAMED 1890-06-04 06:00:00 TS 21.9000 -86.5000 main 68 68 _____________O -1 21.9000 -86.5000 TS 35 8 326
1890153N13279 1890 13 NA GM NOT_NAMED 1890-06-04 09:00:00 TS 22.2297 -86.7126 main 84 84 _____________P -1 22.2297 -86.7126 TS 35 8 322
1890153N13279 1890 13 NA GM NOT_NAMED 1890-06-04 12:00:00 TS 22.5000 -87.0000 main 111 111 _____________O -1 22.5000 -87.0000 TS 35 8 300
1890153N13279 1890 13 NA GM NOT_NAMED 1890-06-04 15:00:00 TS 22.6376 -87.4626 main 124 124 _____________P -1 22.6376 -87.4626 TS 32 9 282
1890153N13279 1890 13 NA GM NOT_NAMED 1890-06-04 18:00:00 TS 22.7000 -88.0000 main 134 134 _____________O -1 22.7000 -88.0000 TD 30 10 277
1890153N13279 1890 13 NA GM NOT_NAMED 1890-06-04 21:00:00 TS 22.7573 -88.5001 main 145 145 _____________P -1 22.7573 -88.5001 TD 30 9 276
1890153N13279 1890 13 NA GM NOT_NAMED 1890-06-05 00:00:00 TS 22.8000 -89.0000 main 151 151 _____________O -1 22.8000 -89.0000 TD 30 9 276
1890153N13279 1890 13 NA GM NOT_NAMED 1890-06-05 03:00:00 TS 22.8498 -89.5000 main 168 168 _____________P -1 22.8498 -89.5000 TD 27 9 276
1890153N13279 1890 13 NA GM NOT_NAMED 1890-06-05 06:00:00 TS 22.9000 -90.0000 main 190 190 _____________O -1 22.9000 -90.0000 TD 25 9 276
1890153N13279 1890 13 NA GM NOT_NAMED 1890-06-05 09:00:00 TS 22.9503 -90.4999 main 210 210 _____________P -1 22.9503 -90.4999 TD 25 9 276
1890153N13279 1890 13 NA GM NOT_NAMED 1890-06-05 12:00:00 TS 23.0000 -91.0000 main 224 _____________O -1 23.0000 -91.0000 TD 25 9 276

About IBTrACS Database

This database is a web-friendly format of International Best Track Archive for Climate Stewardship (IBTrACS), a global best track data archive curated by NOAA dating back to 1842.

Updated: 2021-10-25